Time;durP1;ratioP1;P1;durP2;ratioP2;P2;SDS_P1;SDS_P2;PMS_P1;PMS_P2;Temp;Humidity;BMP_temperature;BMP_pressure;BME280_temperature;BME280_humidity;BME280_pressure;Samples;Min_cycle;Max_cycle;Signal;HPM_P1;HPM_P2
2021/12/02 05:07:29;;;;;;;0.50;0.50;;;2.30;99.90;;;;;;5078766;23;20232;-70
2021/12/02 05:09:56;;;;;;;0.50;0.50;;;2.30;99.90;;;;;;4919084;29;20297;-70
2021/12/02 05:12:23;;;;;;;0.50;0.50;;;2.30;99.90;;;;;;4919191;29;20236;-70
2021/12/02 05:14:50;;;;;;;0.40;0.40;;;2.30;99.90;;;;;;4919155;29;20364;-69
2021/12/02 05:17:17;;;;;;;0.50;0.50;;;2.20;99.90;;;;;;4918671;29;20261;-69
2021/12/02 05:19:44;;;;;;;0.55;0.55;;;2.20;99.90;;;;;;4918815;29;20231;-69
2021/12/02 05:22:10;;;;;;;0.60;0.60;;;2.20;99.90;;;;;;4918635;29;20205;-69
2021/12/02 05:24:39;;;;;;;0.50;0.50;;;2.10;99.90;;;;;;4918241;29;20209;-69
2021/12/02 05:27:06;;;;;;;0.52;0.52;;;2.10;99.90;;;;;;4918464;29;20229;-69
2021/12/02 05:29:33;;;;;;;0.50;0.50;;;2.00;99.90;;;;;;4918473;29;20277;-69
2021/12/02 05:32:01;;;;;;;0.50;0.50;;;2.00;99.90;;;;;;4918351;29;20708;-69
2021/12/02 05:34:28;;;;;;;0.43;0.43;;;1.90;99.90;;;;;;4918145;29;20211;-70
2021/12/02 05:36:55;;;;;;;0.50;0.50;;;1.90;99.90;;;;;;4918326;29;20316;-70
2021/12/02 05:39:22;;;;;;;0.50;0.50;;;1.90;99.90;;;;;;4918207;29;20247;-69
2021/12/02 05:41:53;;;;;;;0.60;0.60;;;1.90;99.90;;;;;;4918141;29;20308;-69
2021/12/02 05:44:20;;;;;;;0.60;0.60;;;1.90;99.90;;;;;;4918117;29;20186;-68
2021/12/02 05:46:47;;;;;;;0.50;0.50;;;2.00;99.90;;;;;;4918074;29;20256;-69
2021/12/02 05:49:14;;;;;;;0.50;0.50;;;2.00;99.90;;;;;;4918337;29;20203;-70
2021/12/02 05:51:42;;;;;;;0.60;0.60;;;2.00;99.90;;;;;;4918299;29;20208;-70
2021/12/02 05:54:09;;;;;;;0.47;0.47;;;2.00;99.90;;;;;;4918649;29;20620;-70
2021/12/02 05:56:36;;;;;;;0.60;0.60;;;2.10;99.90;;;;;;4918026;29;20225;-70
2021/12/02 05:59:04;;;;;;;0.50;0.50;;;2.10;99.90;;;;;;4917498;29;20659;-70
2021/12/02 06:01:31;;;;;;;0.60;0.60;;;2.10;99.90;;;;;;4917988;29;20206;-72
2021/12/02 06:03:57;;;;;;;0.50;0.50;;;2.20;99.90;;;;;;4917979;29;20241;-71
2021/12/02 06:06:26;;;;;;;0.50;0.50;;;2.20;99.90;;;;;;4917841;29;20229;-71
2021/12/02 06:08:53;;;;;;;0.43;0.43;;;2.20;99.90;;;;;;4917483;29;20216;-71
2021/12/02 11:46:39;;;;;;;0.70;0.70;;;5.20;99.90;;;;;;4881661;29;20598;-72
2021/12/02 11:49:06;;;;;;;0.57;0.57;;;5.20;99.90;;;;;;4896205;29;20194;-71
2021/12/02 11:51:33;;;;;;;0.60;0.60;;;5.20;99.90;;;;;;4896744;29;20211;-71
2021/12/02 11:54:00;;;;;;;0.70;0.70;;;5.20;99.90;;;;;;4890408;29;20211;-71
2021/12/02 11:56:28;;;;;;;0.70;0.70;;;5.30;99.90;;;;;;4887878;29;20245;-71
2021/12/02 11:58:56;;;;;;;0.73;0.73;;;5.30;99.90;;;;;;4893067;29;20653;-71
2021/12/02 12:01:27;;;;;;;0.82;0.82;;;5.30;99.90;;;;;;4893230;29;20262;-71
2021/12/02 12:04:03;;;;;;;0.60;0.60;;;5.30;99.90;;;;;;4889168;29;20191;-71
2021/12/02 12:06:32;;;;;;;0.80;0.80;;;5.30;99.90;;;;;;4886901;29;20187;-71
2021/12/02 12:09:00;;;;;;;0.70;0.70;;;5.30;99.90;;;;;;4885374;29;20210;-71
2021/12/02 12:11:28;;;;;;;0.70;0.70;;;5.30;99.90;;;;;;4884552;29;20206;-69
2021/12/02 12:13:58;;;;;;;0.73;0.73;;;5.30;99.90;;;;;;4884023;29;20221;-69
2021/12/02 12:16:27;;;;;;;0.60;0.60;;;5.40;99.90;;;;;;4883844;29;20574;-69
2021/12/02 12:18:57;;;;;;;0.60;0.60;;;5.40;99.90;;;;;;4882222;29;20227;-69
2021/12/02 12:21:38;;;;;;;0.57;0.57;;;5.30;99.90;;;;;;4882502;29;20191;-69
2021/12/02 12:24:06;;;;;;;0.60;0.60;;;5.30;99.90;;;;;;4882105;29;20213;-69
2021/12/02 12:26:35;;;;;;;0.70;0.70;;;5.20;99.90;;;;;;4882147;29;20247;-69
2021/12/02 12:29:27;;;;;;;0.57;0.57;;;5.10;99.90;;;;;;4881853;29;20675;-69
2021/12/02 12:35:32;;;;;;;0.50;0.50;;;5.10;99.90;;;;;;4881659;29;20582;-69
2021/12/02 12:38:03;;;;;;;0.70;0.70;;;5.10;99.90;;;;;;4882452;29;20258;-70
2021/12/02 12:40:49;;;;;;;0.70;0.70;;;4.90;99.90;;;;;;4882020;29;20191;-70
2021/12/02 12:43:26;;;;;;;0.85;0.85;;;4.60;99.90;;;;;;4882016;29;20191;-70
2021/12/02 12:46:06;;;;;;;0.70;0.70;;;4.20;99.90;;;;;;4881848;29;20230;-70
2021/12/02 12:48:34;;;;;;;0.80;0.80;;;3.80;99.90;;;;;;4884354;29;20234;-69
2021/12/02 12:51:23;;;;;;;1.17;0.93;;;3.50;99.90;;;;;;4884449;29;20203;-69
2021/12/02 12:53:53;;;;;;;1.05;1.05;;;3.20;99.90;;;;;;4885678;29;20262;-71
2021/12/02 12:56:31;;;;;;;1.00;1.00;;;3.10;99.90;;;;;;4885807;29;20214;-71
2021/12/02 12:59:13;;;;;;;1.33;1.23;;;2.90;99.90;;;;;;4885807;29;20207;-71
2021/12/02 13:01:54;;;;;;;1.33;1.23;;;2.80;99.90;;;;;;4885962;29;20191;-70
2021/12/02 13:04:24;;;;;;;1.75;1.65;;;2.70;99.90;;;;;;4886284;29;20717;-70
2021/12/02 13:07:16;;;;;;;1.55;1.45;;;2.70;99.90;;;;;;4886703;29;20235;-70
2021/12/02 13:09:58;;;;;;;3.38;3.00;;;2.60;99.90;;;;;;4881928;29;20651;-70
2021/12/02 13:12:50;;;;;;;6.28;3.38;;;2.60;99.90;;;;;;4885984;29;20211;-70
2021/12/02 13:15:20;;;;;;;6.13;3.10;;;2.50;99.90;;;;;;4886548;29;20223;-70
2021/12/02 13:17:49;;;;;;;5.75;3.85;;;2.40;99.90;;;;;;4886807;29;20225;-69
2021/12/02 13:20:33;;;;;;;6.38;3.20;;;2.30;99.90;;;;;;4886790;29;20234;-70
2021/12/02 13:23:36;;;;;;;5.20;3.28;;;2.20;99.90;;;;;;4884813;29;20191;-68
2021/12/02 13:26:18;;;;;;;5.22;3.50;;;2.20;99.90;;;;;;4881625;29;20611;-68
2021/12/02 13:28:46;;;;;;;3.70;2.90;;;2.10;99.90;;;;;;4881080;29;20292;-68
2021/12/02 13:31:15;;;;;;;7.25;3.53;;;2.20;99.90;;;;;;4884448;29;20302;-69
2021/12/02 13:33:44;;;;;;;17.08;7.45;;;2.20;99.90;;;;;;4885030;29;20206;-69
2021/12/02 13:36:14;;;;;;;12.23;5.20;;;2.30;99.90;;;;;;4885614;29;20323;-70
2021/12/02 13:39:00;;;;;;;10.60;4.45;;;2.30;99.90;;;;;;4886594;29;20258;-69
2021/12/02 13:41:28;;;;;;;8.35;4.63;;;2.30;99.90;;;;;;4885556;29;20655;-70
2021/12/02 13:44:05;;;;;;;5.90;3.70;;;2.30;99.90;;;;;;4885499;29;20219;-70
2021/12/02 13:46:38;;;;;;;3.22;2.65;;;2.40;99.90;;;;;;4886295;29;20207;-70
2021/12/02 13:49:11;;;;;;;2.75;2.50;;;2.40;99.90;;;;;;4886312;29;20189;-70
2021/12/02 13:54:37;;;;;;;1.50;1.40;;;2.40;99.90;;;;;;4886029;29;20226;-70
2021/12/02 13:57:35;;;;;;;1.92;1.45;;;2.40;99.90;;;;;;4885407;29;20293;-70
2021/12/02 14:00:15;;;;;;;1.20;1.20;;;2.40;99.90;;;;;;4885715;29;20254;-70
2021/12/02 14:02:45;;;;;;;1.02;1.02;;;2.30;99.90;;;;;;4885921;29;20195;-70
2021/12/02 14:05:13;;;;;;;0.95;0.95;;;2.40;99.90;;;;;;4886214;29;20231;-70
2021/12/02 14:07:43;;;;;;;1.05;1.05;;;2.40;99.90;;;;;;4886260;29;20214;-70
2021/12/02 14:10:15;;;;;;;1.20;1.10;;;2.40;99.90;;;;;;4886625;29;20665;-70
2021/12/02 14:12:45;;;;;;;0.68;0.68;;;2.40;99.90;;;;;;4886012;29;20224;-70
2021/12/02 14:15:16;;;;;;;0.90;0.90;;;2.40;99.90;;;;;;4884583;29;20226;-70
2021/12/02 14:17:55;;;;;;;1.02;0.90;;;2.40;99.90;;;;;;4886983;29;20183;-70
2021/12/02 14:20:25;;;;;;;0.73;0.73;;;2.40;99.90;;;;;;4885454;29;20210;-70
2021/12/02 14:22:56;;;;;;;0.73;0.73;;;2.30;99.90;;;;;;4885723;29;20207;-70
2021/12/02 14:25:28;;;;;;;0.85;0.85;;;2.40;99.90;;;;;;4886188;29;20255;-70
2021/12/02 14:28:15;;;;;;;2.60;2.22;;;2.30;99.90;;;;;;4885899;29;20294;-70
2021/12/02 14:30:45;;;;;;;1.83;1.73;;;2.20;99.90;;;;;;4885468;29;20195;-70
2021/12/02 14:33:14;;;;;;;1.33;1.23;;;2.20;99.90;;;;;;4885676;29;20206;-70
2021/12/02 14:35:52;;;;;;;2.97;1.88;;;2.10;99.90;;;;;;4884358;29;20634;-70
2021/12/02 14:38:22;;;;;;;1.85;1.63;;;2.20;99.90;;;;;;4885328;29;20198;-70
2021/12/02 14:40:57;;;;;;;1.48;1.38;;;2.10;99.90;;;;;;4885699;29;20187;-70
2021/12/02 14:43:27;;;;;;;1.20;1.20;;;2.10;99.90;;;;;;4886163;29;20197;-70
2021/12/02 14:46:13;;;;;;;0.70;0.70;;;2.00;99.90;;;;;;4883526;29;20226;-70
2021/12/02 14:48:41;;;;;;;1.00;1.00;;;2.00;99.90;;;;;;4885146;29;20224;-70
2021/12/02 14:51:11;;;;;;;0.90;0.90;;;2.00;99.90;;;;;;4884901;29;20231;-70
2021/12/02 14:53:41;;;;;;;1.00;1.00;;;2.00;99.90;;;;;;4884613;29;20207;-70
2021/12/02 14:56:25;;;;;;;1.10;1.10;;;2.00;99.90;;;;;;4884550;29;20282;-70
2021/12/02 14:59:20;;;;;;;0.80;0.80;;;2.00;99.90;;;;;;4879513;29;20731;-70
2021/12/02 15:02:02;;;;;;;0.90;0.90;;;2.00;99.90;;;;;;4879236;29;20191;-70
2021/12/02 15:04:31;;;;;;;0.70;0.70;;;2.00;99.90;;;;;;4879295;29;20669;-71
2021/12/02 15:07:10;;;;;;;0.90;0.90;;;2.00;99.90;;;;;;4879403;29;20671;-70
2021/12/02 15:09:39;;;;;;;1.05;1.05;;;2.00;99.90;;;;;;4879448;29;20199;-70
2021/12/02 15:12:21;;;;;;;1.45;1.00;;;1.90;99.90;;;;;;4879271;29;20770;-70
2021/12/02 15:14:50;;;;;;;1.25;1.25;;;1.90;99.90;;;;;;4879595;29;20241;-70
2021/12/02 15:17:18;;;;;;;2.15;1.95;;;1.90;99.90;;;;;;4879615;29;20298;-70
2021/12/02 15:19:46;;;;;;;2.30;2.00;;;1.90;99.90;;;;;;4879535;29;20227;-70
2021/12/02 15:22:28;;;;;;;1.95;1.77;;;1.90;99.90;;;;;;4879228;29;20675;-70
2021/12/02 15:25:06;;;;;;;1.45;1.42;;;1.90;99.90;;;;;;4879074;29;20622;-70
2021/12/02 15:27:36;;;;;;;1.83;1.73;;;1.80;99.90;;;;;;4879437;29;20216;-70
2021/12/02 15:30:04;;;;;;;2.17;1.95;;;1.80;99.90;;;;;;4879561;29;20203;-70
2021/12/02 15:32:34;;;;;;;1.73;1.63;;;1.80;99.90;;;;;;4880211;29;20293;-70
2021/12/02 15:35:01;;;;;;;2.30;2.10;;;1.80;99.90;;;;;;4882770;29;20223;-70
2021/12/02 15:37:28;;;;;;;2.65;2.33;;;1.80;99.90;;;;;;4883321;29;20230;-70
2021/12/02 15:39:55;;;;;;;2.60;2.35;;;1.80;99.90;;;;;;4882876;29;20231;-70
2021/12/02 15:42:22;;;;;;;2.70;2.50;;;1.80;99.90;;;;;;4883101;29;20234;-70
2021/12/02 15:44:50;;;;;;;3.65;2.67;;;1.80;99.90;;;;;;4883410;29;20269;-70
2021/12/02 15:47:17;;;;;;;3.28;2.97;;;1.80;99.90;;;;;;4882527;29;20694;-70
2021/12/02 15:49:58;;;;;;;3.65;3.00;;;1.80;99.90;;;;;;4882804;29;20242;-70
2021/12/02 15:52:27;;;;;;;5.05;3.53;;;1.70;99.90;;;;;;4882826;29;20274;-70
2021/12/02 15:54:54;;;;;;;5.28;2.90;;;1.70;99.90;;;;;;4882766;29;20313;-70
2021/12/02 15:57:21;;;;;;;4.30;3.33;;;1.70;99.90;;;;;;4882725;29;20210;-70
2021/12/02 15:59:48;;;;;;;4.40;2.33;;;1.70;99.90;;;;;;4882494;29;20324;-70
2021/12/02 16:02:24;;;;;;;3.03;2.10;;;1.70;99.90;;;;;;4882441;29;20209;-70
2021/12/02 16:04:55;;;;;;;1.70;1.60;;;1.70;99.90;;;;;;4882242;29;20626;-71
2021/12/02 16:07:26;;;;;;;1.75;1.42;;;1.70;99.90;;;;;;4882995;29;20192;-71
2021/12/02 16:12:37;;;;;;;1.88;1.20;;;1.60;99.90;;;;;;4881082;29;20263;-71
2021/12/02 16:15:08;;;;;;;1.67;1.58;;;1.60;99.90;;;;;;4882482;29;20774;-71
2021/12/02 16:17:37;;;;;;;1.38;1.38;;;1.60;99.90;;;;;;4882746;29;20266;-71
2021/12/02 16:20:06;;;;;;;1.08;1.08;;;1.60;99.90;;;;;;4882444;29;20234;-70
2021/12/02 16:22:33;;;;;;;1.35;1.35;;;1.60;99.90;;;;;;4882984;29;20206;-70
2021/12/02 16:25:00;;;;;;;1.67;1.52;;;1.60;99.90;;;;;;4881966;29;20774;-70
2021/12/02 16:27:27;;;;;;;1.67;1.52;;;1.60;99.90;;;;;;4882193;29;20306;-70
2021/12/02 16:29:55;;;;;;;1.52;1.52;;;1.60;99.90;;;;;;4881809;29;20238;-70
2021/12/02 16:32:24;;;;;;;1.48;1.40;;;1.50;99.90;;;;;;4882156;29;20298;-70
2021/12/02 16:34:53;;;;;;;2.05;1.42;;;1.50;99.90;;;;;;4882120;29;20226;-71
2021/12/02 16:37:20;;;;;;;1.50;1.40;;;1.50;99.90;;;;;;4882015;29;20298;-71
2021/12/02 16:40:06;;;;;;;1.20;1.20;;;1.50;99.90;;;;;;4881909;29;20317;-71
2021/12/02 16:42:33;;;;;;;1.55;1.55;;;1.50;99.90;;;;;;4881976;29;20195;-71
2021/12/02 16:45:00;;;;;;;1.65;1.33;;;1.50;99.90;;;;;;4880224;29;20313;-71
2021/12/02 16:47:27;;;;;;;1.77;1.65;;;1.50;99.90;;;;;;4882036;29;20249;-71
2021/12/02 16:49:55;;;;;;;1.33;1.27;;;1.50;99.90;;;;;;4882307;29;20213;-70
2021/12/02 16:52:22;;;;;;;1.20;1.20;;;1.50;99.90;;;;;;4881866;29;20214;-70
2021/12/02 16:54:49;;;;;;;1.67;1.65;;;1.60;99.90;;;;;;4881503;29;20668;-71
2021/12/02 16:57:15;;;;;;;1.40;1.40;;;1.60;99.90;;;;;;4882045;29;20241;-71
2021/12/02 16:59:45;;;;;;;1.52;1.52;;;1.60;99.90;;;;;;4882010;29;20227;-70
2021/12/02 17:02:12;;;;;;;1.48;1.40;;;1.50;99.90;;;;;;4881859;29;20262;-71
2021/12/02 17:04:39;;;;;;;2.00;1.90;;;1.50;99.90;;;;;;4881776;29;20232;-70
2021/12/02 17:07:07;;;;;;;1.58;1.50;;;1.50;99.90;;;;;;4881526;29;20297;-70
2021/12/02 17:09:34;;;;;;;1.65;1.30;;;1.50;99.90;;;;;;4881230;29;20566;-71
2021/12/02 17:12:04;;;;;;;1.95;1.40;;;1.50;99.90;;;;;;4881460;29;20289;-71
2021/12/02 17:14:32;;;;;;;1.20;1.20;;;1.50;99.90;;;;;;4881013;29;20234;-71
2021/12/02 17:17:00;;;;;;;1.27;1.27;;;1.50;99.90;;;;;;4881076;29;20219;-71
2021/12/02 17:19:27;;;;;;;1.27;1.27;;;1.50;99.90;;;;;;4881090;29;20738;-72
2021/12/02 17:21:54;;;;;;;1.40;1.40;;;1.50;99.90;;;;;;4881135;29;20245;-71
2021/12/02 17:24:26;;;;;;;1.65;1.65;;;1.50;99.90;;;;;;4881260;29;20237;-72
2021/12/02 17:26:53;;;;;;;1.40;1.40;;;1.50;99.90;;;;;;4881051;29;20191;-72
2021/12/02 17:29:20;;;;;;;1.20;1.20;;;1.50;99.90;;;;;;4881252;29;20294;-72
2021/12/02 17:31:47;;;;;;;1.50;1.48;;;1.40;99.90;;;;;;4881273;29;20302;-72
2021/12/02 17:34:14;;;;;;;1.30;1.30;;;1.40;99.90;;;;;;4881137;29;20226;-72
2021/12/02 17:36:42;;;;;;;1.50;1.50;;;1.40;99.90;;;;;;4880777;29;20567;-72
2021/12/02 17:39:10;;;;;;;1.40;1.40;;;1.40;99.90;;;;;;4881003;29;20210;-72
2021/12/02 17:41:39;;;;;;;1.45;1.45;;;1.40;99.90;;;;;;4880935;29;20222;-72
2021/12/02 17:44:06;;;;;;;1.85;1.55;;;1.40;99.90;;;;;;4880904;29;20301;-72
2021/12/02 17:46:34;;;;;;;1.50;1.50;;;1.40;99.90;;;;;;4880502;29;20294;-68
2021/12/02 17:49:01;;;;;;;1.50;1.40;;;1.40;99.90;;;;;;4881414;29;20281;-68
2021/12/02 17:51:28;;;;;;;1.30;1.20;;;1.30;99.90;;;;;;4880853;29;20282;-68
2021/12/02 17:53:55;;;;;;;1.67;1.10;;;1.30;99.90;;;;;;4880728;29;20297;-68
2021/12/02 17:56:23;;;;;;;1.45;1.40;;;1.30;99.90;;;;;;4879227;29;20207;-68
2021/12/02 17:58:52;;;;;;;1.40;1.30;;;1.30;99.90;;;;;;4879465;29;20207;-69
2021/12/02 18:01:22;;;;;;;1.13;1.13;;;1.30;99.90;;;;;;4878694;29;20739;-67
2021/12/02 18:03:52;;;;;;;1.30;1.27;;;1.20;99.90;;;;;;4879862;29;20278;-66
2021/12/02 18:06:19;;;;;;;1.10;1.10;;;1.30;99.90;;;;;;4880346;29;20282;-66
2021/12/02 18:08:47;;;;;;;1.00;1.00;;;1.20;99.90;;;;;;4880480;29;20257;-66
2021/12/02 18:11:14;;;;;;;1.30;1.30;;;1.30;99.90;;;;;;4880307;29;20597;-67
2021/12/02 18:13:41;;;;;;;1.25;1.25;;;1.20;99.90;;;;;;4880347;29;20242;-68
2021/12/02 18:16:10;;;;;;;1.10;1.10;;;1.10;99.90;;;;;;4880326;29;20227;-68
2021/12/02 18:18:37;;;;;;;1.13;1.13;;;1.10;99.90;;;;;;4880527;29;20289;-67
2021/12/02 18:21:04;;;;;;;1.00;1.00;;;1.10;99.90;;;;;;4880110;29;20630;-68
2021/12/02 18:23:32;;;;;;;1.08;1.08;;;1.10;99.90;;;;;;4880097;29;20742;-67
2021/12/02 18:25:59;;;;;;;4.38;3.15;;;1.10;99.90;;;;;;4879894;29;20737;-68
2021/12/02 18:28:26;;;;;;;3.45;3.15;;;1.10;99.90;;;;;;4879895;29;20211;-68
2021/12/02 18:30:53;;;;;;;2.65;2.45;;;1.20;99.90;;;;;;4880332;29;20203;-68
2021/12/02 18:33:21;;;;;;;1.70;1.70;;;1.20;99.90;;;;;;4879860;29;20217;-68
2021/12/02 18:35:48;;;;;;;1.50;1.50;;;1.10;99.90;;;;;;4880258;29;20239;-68
2021/12/02 18:38:15;;;;;;;1.65;1.65;;;1.20;99.90;;;;;;4880117;29;20245;-67
2021/12/02 18:40:42;;;;;;;1.73;1.63;;;1.20;99.90;;;;;;4880207;29;20227;-67
2021/12/02 18:43:09;;;;;;;1.40;1.40;;;1.20;99.90;;;;;;4880203;29;20236;-67
2021/12/02 18:45:37;;;;;;;1.35;1.35;;;1.20;99.90;;;;;;4879900;29;20778;-68
2021/12/02 18:48:04;;;;;;;1.40;1.40;;;1.20;99.90;;;;;;4880092;29;20218;-66
2021/12/02 18:50:33;;;;;;;1.17;1.17;;;1.00;99.90;;;;;;4880196;29;20203;-67
2021/12/02 18:53:00;;;;;;;1.10;1.10;;;1.20;99.90;;;;;;4880092;29;20207;-67
2021/12/02 18:55:27;;;;;;;1.30;1.30;;;1.20;99.90;;;;;;4880057;29;20223;-67
2021/12/02 18:57:54;;;;;;;1.25;1.25;;;1.20;99.90;;;;;;4880364;29;20214;-66
2021/12/02 19:00:24;;;;;;;1.67;0.98;;;1.20;99.90;;;;;;4880072;29;20231;-68
2021/12/02 19:02:54;;;;;;;1.23;1.23;;;1.20;99.90;;;;;;4880043;29;20631;-68
2021/12/02 19:05:25;;;;;;;1.45;1.45;;;1.10;99.90;;;;;;4879690;29;20706;-68
2021/12/02 19:08:12;;;;;;;1.35;1.35;;;1.10;99.90;;;;;;4881492;29;20199;-67
2021/12/02 19:27:19;;;;;;;2.00;1.70;;;0.90;99.90;;;;;;4844444;29;20208;-66
2021/12/02 19:29:46;;;;;;;1.80;1.73;;;0.90;99.90;;;;;;4874191;29;20217;-68
2021/12/02 19:32:13;;;;;;;2.10;2.00;;;0.80;99.90;;;;;;4883070;29;20667;-67
2021/12/02 19:34:41;;;;;;;1.70;1.60;;;0.80;99.90;;;;;;4882914;29;20586;-66
2021/12/02 19:37:08;;;;;;;1.67;1.58;;;0.80;99.90;;;;;;4883007;29;20766;-68
2021/12/02 19:39:36;;;;;;;1.95;1.85;;;0.80;99.90;;;;;;4882790;29;20655;-67
2021/12/02 19:42:03;;;;;;;2.72;2.03;;;0.70;99.90;;;;;;4883739;29;20248;-68
2021/12/02 19:44:30;;;;;;;2.05;1.92;;;0.70;99.90;;;;;;4882634;29;20227;-68
2021/12/02 19:46:57;;;;;;;2.58;1.60;;;0.60;99.90;;;;;;4883053;29;20639;-67
2021/12/02 19:49:24;;;;;;;1.80;1.67;;;0.60;99.90;;;;;;4882954;29;20203;-67
2021/12/02 19:51:51;;;;;;;1.75;1.65;;;0.60;99.90;;;;;;4882873;29;20202;-67
2021/12/02 19:54:18;;;;;;;1.50;1.50;;;0.60;99.90;;;;;;4882605;29;20671;-67
2021/12/02 19:56:46;;;;;;;1.58;1.48;;;0.60;99.90;;;;;;4882557;29;20297;-67
2021/12/02 19:59:13;;;;;;;1.38;1.38;;;0.60;99.90;;;;;;4882411;29;20634;-67
2021/12/02 20:01:41;;;;;;;1.45;1.35;;;0.60;99.90;;;;;;4882760;29;20309;-67
2021/12/02 20:04:08;;;;;;;1.45;1.45;;;0.60;99.90;;;;;;4882766;29;20203;-68
2021/12/02 20:06:35;;;;;;;1.40;1.40;;;0.60;99.90;;;;;;4882402;29;20762;-67
2021/12/02 20:09:02;;;;;;;1.30;1.30;;;0.60;99.90;;;;;;4882463;29;20745;-67
2021/12/02 20:11:30;;;;;;;1.02;1.02;;;0.60;99.90;;;;;;4882679;29;20245;-67
2021/12/02 20:13:59;;;;;;;1.17;1.17;;;0.60;99.90;;;;;;4882536;29;20290;-67
2021/12/02 20:16:30;;;;;;;1.17;1.17;;;0.60;99.90;;;;;;4882424;29;20293;-67
2021/12/02 20:18:58;;;;;;;0.98;0.98;;;0.60;99.90;;;;;;4882372;29;20205;-67
2021/12/02 20:21:25;;;;;;;1.15;1.15;;;0.50;99.90;;;;;;4882399;29;20279;-67
2021/12/02 20:23:52;;;;;;;1.48;1.48;;;0.50;99.90;;;;;;4882253;29;20266;-67
2021/12/02 20:26:21;;;;;;;1.23;1.23;;;0.40;99.90;;;;;;4882171;29;20252;-67
2021/12/02 20:28:48;;;;;;;1.10;1.10;;;0.40;99.90;;;;;;4881840;29;20626;-68
2021/12/02 20:31:22;;;;;;;1.45;1.45;;;0.40;99.90;;;;;;4882157;29;20310;-68
2021/12/02 20:33:53;;;;;;;1.10;1.10;;;0.40;99.90;;;;;;4881910;29;20655;-67
2021/12/02 20:36:21;;;;;;;1.48;1.38;;;0.40;99.90;;;;;;4881955;29;20674;-68
2021/12/02 20:38:48;;;;;;;1.10;1.10;;;0.40;99.90;;;;;;4882202;29;20246;-68
2021/12/02 20:41:16;;;;;;;1.27;1.27;;;0.40;99.90;;;;;;4881885;29;20794;-68
2021/12/02 20:43:46;;;;;;;1.40;1.40;;;0.40;99.90;;;;;;4882320;29;20209;-67
2021/12/02 20:46:14;;;;;;;1.30;1.30;;;0.50;99.90;;;;;;4882009;29;20590;-67
2021/12/02 20:48:44;;;;;;;1.60;1.50;;;0.50;99.90;;;;;;4881611;29;20221;-66
2021/12/02 20:51:14;;;;;;;1.38;1.38;;;0.50;99.90;;;;;;4881965;29;20215;-67
2021/12/02 20:53:41;;;;;;;1.52;1.52;;;0.50;99.90;;;;;;4881379;29;20191;-67
2021/12/02 20:56:10;;;;;;;1.50;1.50;;;0.50;99.90;;;;;;4881680;29;20227;-67
2021/12/02 20:58:38;;;;;;;1.45;1.45;;;0.50;99.90;;;;;;4881626;29;20290;-67
2021/12/02 21:01:05;;;;;;;1.50;1.50;;;0.50;99.90;;;;;;4881292;29;20706;-67
2021/12/02 21:03:32;;;;;;;1.42;1.42;;;0.50;99.90;;;;;;4881454;29;20310;-67
2021/12/02 21:06:01;;;;;;;1.40;1.40;;;0.50;99.90;;;;;;4881421;29;20249;-67
2021/12/02 21:08:30;;;;;;;1.48;1.35;;;0.50;99.90;;;;;;4881141;29;20317;-67
2021/12/02 21:10:58;;;;;;;1.00;1.00;;;0.50;99.90;;;;;;4881654;29;20218;-67
2021/12/02 21:13:28;;;;;;;1.30;1.27;;;0.50;99.90;;;;;;4880985;29;20743;-67
2021/12/02 21:15:58;;;;;;;1.35;1.35;;;0.50;99.90;;;;;;4881317;29;20265;-67
2021/12/02 21:18:25;;;;;;;1.20;1.20;;;0.50;99.90;;;;;;4882157;29;20238;-67
2021/12/02 21:20:53;;;;;;;1.23;1.23;;;0.50;99.90;;;;;;4881190;29;20226;-67
2021/12/02 21:23:21;;;;;;;1.30;1.30;;;0.50;99.90;;;;;;4881263;29;20298;-67
2021/12/02 21:25:53;;;;;;;1.40;1.40;;;0.50;99.90;;;;;;4881150;29;20229;-67
2021/12/02 21:28:21;;;;;;;1.40;1.40;;;0.50;99.90;;;;;;4881087;29;20230;-67
2021/12/02 21:30:48;;;;;;;1.50;1.50;;;0.50;99.90;;;;;;4880360;29;20234;-67
2021/12/02 21:33:16;;;;;;;1.48;1.48;;;0.50;99.90;;;;;;4880771;29;20216;-67
2021/12/02 21:35:47;;;;;;;1.65;1.65;;;0.40;99.90;;;;;;4880961;29;20229;-67
2021/12/02 21:38:15;;;;;;;1.40;1.40;;;0.40;99.90;;;;;;4880629;29;20651;-67
2021/12/02 21:40:45;;;;;;;1.50;1.40;;;0.40;99.90;;;;;;4880831;29;20575;-67
2021/12/02 21:43:12;;;;;;;1.42;1.42;;;0.40;99.90;;;;;;4880741;29;20651;-67
2021/12/02 21:45:41;;;;;;;1.40;1.40;;;0.40;99.90;;;;;;4880799;29;20254;-67
2021/12/02 21:48:08;;;;;;;1.42;1.42;;;0.40;99.90;;;;;;4880611;29;20223;-67
2021/12/02 21:50:35;;;;;;;1.30;1.30;;;0.40;99.90;;;;;;4880413;29;20203;-67
2021/12/02 21:53:03;;;;;;;1.35;1.30;;;0.40;99.90;;;;;;4880691;29;20203;-67
2021/12/02 21:55:32;;;;;;;1.20;1.20;;;0.40;99.90;;;;;;4880634;29;20227;-67
2021/12/02 21:58:02;;;;;;;1.30;1.30;;;0.40;99.90;;;;;;4880656;29;20213;-67
2021/12/02 22:00:35;;;;;;;1.52;1.40;;;0.30;99.90;;;;;;4880718;29;20255;-66
2021/12/02 22:03:02;;;;;;;1.30;1.30;;;0.30;99.90;;;;;;4880497;29;20191;-66
2021/12/02 22:05:29;;;;;;;1.10;1.10;;;0.20;99.90;;;;;;4880072;29;20661;-66
2021/12/02 22:08:00;;;;;;;1.17;1.17;;;0.20;99.90;;;;;;4880521;29;20213;-66
2021/12/02 22:10:28;;;;;;;1.67;1.67;;;0.10;99.90;;;;;;4880446;29;20195;-66
2021/12/02 22:12:55;;;;;;;1.42;1.33;;;0.00;99.90;;;;;;4880476;29;20203;-67
2021/12/02 22:15:23;;;;;;;1.67;1.27;;;0.00;99.90;;;;;;4880558;29;20227;-68
2021/12/02 22:17:51;;;;;;;1.40;1.38;;;-0.10;99.90;;;;;;4880213;29;20746;-68
2021/12/02 22:20:19;;;;;;;1.35;1.35;;;-0.10;99.90;;;;;;4880336;29;20325;-67
2021/12/02 22:22:47;;;;;;;1.63;1.52;;;-0.20;99.90;;;;;;4879928;29;20740;-67
2021/12/02 22:25:15;;;;;;;1.20;1.20;;;-0.20;99.90;;;;;;4880039;29;20226;-67
2021/12/02 22:27:43;;;;;;;1.50;1.50;;;-0.20;99.90;;;;;;4880197;29;20293;-67
2021/12/02 22:30:11;;;;;;;1.60;1.50;;;-0.30;99.90;;;;;;4880647;29;20234;-67
2021/12/02 22:32:41;;;;;;;1.38;1.38;;;-0.30;99.90;;;;;;4880195;29;20209;-67
